createdAt,value
2023-02-06T00:00:21.304Z,20.6
2023-02-06T00:05:52.098Z,20.6
2023-02-06T00:11:22.365Z,20.6
2023-02-06T00:16:53.104Z,20.6
2023-02-06T00:22:22.763Z,20.6
2023-02-06T00:27:53.273Z,20.6
2023-02-06T00:33:23.798Z,20.6
2023-02-06T00:38:54.401Z,20.6
2023-02-06T00:44:23.936Z,20.6
2023-02-06T00:49:54.547Z,20.6
2023-02-06T00:55:25.049Z,20.6
2023-02-06T01:00:55.517Z,20.6
2023-02-06T01:06:26.096Z,20.6
2023-02-06T01:11:55.866Z,20.6
2023-02-06T01:17:25.318Z,20.6
2023-02-06T01:22:55.822Z,20.6
2023-02-06T01:28:26.427Z,20.6
2023-02-06T01:33:56.861Z,20.6
2023-02-06T01:39:24.534Z,20.6
2023-02-06T01:44:54.105Z,20.6
2023-02-06T01:50:24.679Z,20.6
2023-02-06T01:55:55.173Z,20.6
2023-02-06T02:01:26.349Z,20.6
2023-02-06T02:06:56.492Z,20.6
2023-02-06T02:12:26.953Z,20.6
2023-02-06T02:17:57.477Z,20.6
2023-02-06T02:23:28.014Z,20.6
2023-02-06T02:28:58.501Z,20.6
2023-02-06T02:34:29.260Z,20.6
2023-02-06T02:39:59.740Z,20.6
2023-02-06T02:45:30.322Z,20.6
2023-02-06T02:51:00.831Z,20.6
2023-02-06T02:56:31.545Z,20.6
2023-02-06T03:02:01.217Z,20.6
2023-02-06T03:07:31.785Z,20.6
2023-02-06T03:13:02.287Z,20.6
2023-02-06T03:18:32.831Z,20.6
2023-02-06T03:24:02.367Z,20.5
2023-02-06T03:30:37.361Z,20.6
2023-02-06T03:36:04.977Z,20.6
2023-02-06T03:41:35.565Z,20.6
2023-02-06T03:47:05.911Z,20.5
2023-02-06T03:52:35.408Z,20.6
2023-02-06T03:58:06.061Z,20.6
2023-02-06T04:03:36.645Z,20.5
2023-02-06T04:09:07.116Z,20.6
2023-02-06T04:14:37.708Z,20.6
2023-02-06T04:20:08.260Z,20.6
2023-02-06T04:25:37.195Z,20.6
2023-02-06T04:31:07.595Z,20.5
2023-02-06T04:36:38.101Z,20.5
2023-02-06T04:42:07.587Z,20.5
2023-02-06T04:47:37.230Z,20.5
2023-02-06T04:53:07.655Z,20.5
2023-02-06T04:58:38.152Z,20.5
2023-02-06T05:04:08.773Z,20.5
2023-02-06T05:09:39.301Z,20.5
2023-02-06T05:15:06.989Z,20.5
2023-02-06T05:20:37.471Z,20.5
2023-02-06T05:26:07.921Z,20.5
2023-02-06T05:31:38.671Z,20.5
2023-02-06T05:37:09.279Z,20.4
2023-02-06T05:42:38.048Z,20.4
2023-02-06T05:48:07.656Z,20.4
2023-02-06T05:53:38.240Z,20.4
2023-02-06T05:59:08.697Z,20.4
2023-02-06T06:04:38.189Z,20.4
2023-02-06T06:10:07.841Z,20.3
2023-02-06T06:15:38.559Z,20.3
2023-02-06T06:21:08.868Z,20.3
2023-02-06T06:26:39.542Z,20.3
2023-02-06T06:32:10.094Z,20.3
2023-02-06T06:37:39.606Z,20.3
2023-02-06T06:43:10.099Z,20.2
2023-02-06T06:48:40.651Z,20.3
2023-02-06T06:54:11.146Z,20.3
2023-02-06T06:59:40.766Z,20.2
2023-02-06T07:05:11.235Z,20.2
2023-02-06T07:10:41.774Z,20.2
2023-02-06T07:16:12.579Z,20.2
2023-02-06T07:21:43.120Z,20.2
2023-02-06T07:27:13.720Z,20.3
2023-02-06T07:32:44.255Z,20.4
2023-02-06T07:38:13.729Z,20.4
2023-02-06T07:43:44.178Z,20.4
2023-02-06T07:49:14.685Z,20.5
2023-02-06T07:54:45.245Z,20.4
2023-02-06T08:00:15.695Z,20.4
2023-02-06T08:05:46.350Z,20.5
2023-02-06T08:11:16.762Z,20.5
2023-02-06T08:16:47.314Z,20.5
2023-02-06T08:22:17.850Z,20.5
2023-02-06T08:27:47.379Z,20.4
2023-02-06T08:33:17.802Z,20.4
2023-02-06T08:38:48.446Z,20.4
2023-02-06T08:44:18.880Z,20.4
2023-02-06T08:49:49.409Z,20.4
2023-02-06T08:55:18.874Z,20.4
2023-02-06T09:00:49.320Z,20.5
2023-02-06T09:06:19.795Z,20.4
2023-02-06T09:11:49.325Z,20.4
2023-02-06T09:17:19.768Z,20.4
2023-02-06T09:22:50.365Z,20.4
2023-02-06T09:28:21.021Z,20.4
2023-02-06T09:33:51.382Z,20.4
2023-02-06T09:39:22.039Z,20.4
2023-02-06T09:44:52.482Z,20.4
2023-02-06T09:50:22.919Z,20.4
2023-02-06T09:55:53.516Z,20.4
2023-02-06T10:01:24.246Z,20.4
2023-02-06T10:06:53.655Z,20.4
2023-02-06T10:12:24.138Z,20.4
2023-02-06T10:17:53.668Z,20.4
2023-02-06T10:23:24.082Z,20.4
2023-02-06T10:28:54.578Z,20.4
2023-02-06T10:34:24.100Z,20.4
2023-02-06T10:39:54.547Z,20.4
2023-02-06T10:45:25.130Z,20.4
2023-02-06T10:50:55.794Z,20.4
2023-02-06T10:56:26.179Z,20.4
2023-02-06T11:01:58.131Z,20.4
2023-02-06T11:07:27.280Z,20.4
2023-02-06T11:12:57.734Z,20.4
2023-02-06T11:18:28.343Z,20.4
2023-02-06T11:23:58.813Z,20.4
2023-02-06T11:29:28.280Z,20.4
2023-02-06T11:34:58.775Z,20.4
2023-02-06T11:40:29.252Z,20.4
2023-02-06T11:45:59.846Z,20.4
2023-02-06T11:52:36.395Z,20.4
2023-02-06T11:58:07.072Z,20.4
2023-02-06T12:03:37.608Z,20.4
2023-02-06T12:09:08.043Z,20.4
2023-02-06T12:14:37.579Z,20.4
2023-02-06T12:20:07.983Z,20.4
2023-02-06T12:25:38.839Z,20.4
2023-02-06T12:31:09.401Z,20.4
2023-02-06T12:36:39.669Z,20.4
2023-02-06T12:42:10.153Z,20.4
2023-02-06T12:47:39.672Z,20.4
2023-02-06T12:53:10.090Z,20.4
2023-02-06T12:58:40.732Z,20.4
2023-02-06T13:04:11.186Z,20.4
2023-02-06T13:09:41.920Z,20.4
2023-02-06T13:15:12.305Z,20.4
2023-02-06T13:20:42.904Z,20.4
2023-02-06T13:26:13.337Z,20.4
2023-02-06T13:31:43.930Z,20.4
2023-02-06T13:37:14.416Z,20.4
2023-02-06T13:42:43.870Z,20.4
2023-02-06T13:48:14.305Z,20.4
2023-02-06T13:53:44.810Z,20.4
2023-02-06T13:59:15.387Z,20.4
2023-02-06T14:04:45.885Z,20.4
2023-02-06T14:10:16.389Z,20.4
2023-02-06T14:15:47.009Z,20.4
2023-02-06T14:21:17.449Z,20.4
2023-02-06T14:26:46.946Z,20.4
2023-02-06T14:32:17.394Z,20.4
2023-02-06T14:37:47.868Z,20.4
2023-02-06T14:43:18.511Z,20.4
2023-02-06T14:48:48.989Z,20.4
2023-02-06T14:54:18.472Z,20.4
2023-02-06T14:59:48.974Z,20.4
2023-02-06T15:05:19.410Z,20.4
2023-02-06T15:10:48.901Z,20.4
2023-02-06T15:16:19.550Z,20.4
2023-02-06T15:21:49.969Z,20.4
2023-02-06T15:27:19.475Z,20.4
2023-02-06T15:32:50.020Z,20.4
2023-02-06T15:38:19.442Z,20.4
2023-02-06T15:43:49.961Z,20.4
2023-02-06T15:49:20.445Z,20.4
2023-02-06T15:54:49.884Z,20.5
2023-02-06T16:00:20.366Z,20.5
2023-02-06T16:05:50.878Z,20.5
2023-02-06T16:11:20.345Z,20.5
2023-02-06T16:16:50.967Z,20.5
2023-02-06T16:22:21.564Z,20.5
2023-02-06T16:27:52.031Z,20.5
2023-02-06T16:33:22.487Z,20.5
2023-02-06T16:39:03.224Z,20.4
2023-02-06T16:44:28.251Z,20.4
2023-02-06T16:49:52.989Z,20.4
2023-02-06T16:55:23.639Z,20.4
2023-02-06T17:00:53.959Z,20.4
2023-02-06T17:06:24.530Z,20.4
2023-02-06T17:11:55.038Z,20.4
2023-02-06T17:17:25.468Z,20.4
2023-02-06T17:22:56.093Z,20.4
2023-02-06T17:28:26.735Z,20.4
2023-02-06T17:33:57.270Z,20.5
2023-02-06T17:39:27.864Z,20.5
2023-02-06T17:44:58.383Z,20.5
2023-02-06T17:50:28.838Z,20.5
2023-02-06T17:55:59.481Z,20.5
2023-02-06T18:01:30.020Z,20.5
2023-02-06T18:07:00.436Z,20.4
2023-02-06T18:12:31.014Z,20.5
2023-02-06T18:18:01.565Z,20.5
2023-02-06T18:23:30.999Z,20.5
2023-02-06T18:29:01.466Z,20.5
2023-02-06T18:34:31.960Z,20.6
2023-02-06T18:40:02.553Z,20.6
2023-02-06T18:45:33.000Z,20.6
2023-02-06T18:51:03.740Z,20.6
2023-02-06T18:56:34.068Z,20.6
2023-02-06T19:02:04.669Z,20.6
2023-02-06T19:07:34.187Z,20.6
2023-02-06T19:13:04.609Z,20.6
2023-02-06T19:18:38.817Z,20.6
2023-02-06T19:24:05.714Z,20.6
2023-02-06T19:29:36.736Z,20.6
2023-02-06T19:35:06.649Z,20.6
2023-02-06T19:40:36.568Z,20.6
2023-02-06T19:46:06.634Z,20.7
2023-02-06T19:51:36.112Z,20.7
2023-02-06T19:57:06.620Z,20.8
2023-02-06T20:02:37.072Z,20.8
2023-02-06T20:08:07.650Z,20.9
2023-02-06T20:13:38.166Z,20.9
2023-02-06T20:19:08.634Z,20.9
2023-02-06T20:24:39.274Z,20.9
2023-02-06T20:30:09.755Z,20.8
2023-02-06T20:35:40.226Z,20.8
2023-02-06T20:41:10.798Z,20.8
2023-02-06T20:46:41.395Z,20.8
2023-02-06T20:52:10.852Z,20.8
2023-02-06T20:57:41.331Z,20.8
2023-02-06T21:03:11.874Z,20.8
2023-02-06T21:08:42.457Z,20.8
2023-02-06T21:14:12.937Z,20.8
2023-02-06T21:19:43.558Z,20.8
2023-02-06T21:25:14.001Z,20.8
2023-02-06T21:30:44.747Z,20.8
2023-02-06T21:36:15.253Z,20.8
2023-02-06T21:41:45.710Z,20.8
2023-02-06T21:47:16.175Z,20.8
2023-02-06T21:52:46.804Z,20.8
2023-02-06T21:58:17.396Z,20.8
2023-02-06T22:03:47.867Z,20.8
2023-02-06T22:09:18.473Z,20.8
2023-02-06T22:14:48.938Z,20.8
2023-02-06T22:20:19.518Z,20.8
2023-02-06T22:25:50.108Z,20.8
2023-02-06T22:31:20.512Z,20.7
2023-02-06T22:36:51.217Z,20.7
2023-02-06T22:42:21.572Z,20.7
2023-02-06T22:47:52.012Z,20.7
2023-02-06T22:53:22.596Z,20.7
2023-02-06T22:58:53.097Z,20.7
2023-02-06T23:04:23.556Z,20.7
2023-02-06T23:09:54.155Z,20.7
2023-02-06T23:15:24.641Z,20.7
2023-02-06T23:20:55.169Z,20.7
2023-02-06T23:26:24.755Z,20.7
2023-02-06T23:31:55.154Z,20.7
2023-02-06T23:37:24.638Z,20.7
2023-02-06T23:42:55.106Z,20.7
2023-02-06T23:48:25.622Z,20.7
2023-02-06T23:53:55.094Z,20.7
2023-02-06T23:59:25.592Z,20.7
